createdAt,value
2022-12-11T00:02:08.245Z,101344.44
2022-12-11T00:04:35.466Z,101346.22
2022-12-11T00:07:02.539Z,101341.78
2022-12-11T00:09:29.537Z,101347.91
2022-12-11T00:11:56.476Z,101340.16
2022-12-11T00:14:23.049Z,101345.28
2022-12-11T00:16:49.725Z,101343.47
2022-12-11T00:19:17.266Z,101337.47
2022-12-11T00:21:44.314Z,101340.94
2022-12-11T00:24:11.375Z,101334.88
2022-12-11T00:26:39.429Z,101332.47
2022-12-11T00:29:08.254Z,101337.53
2022-12-11T00:31:35.640Z,101330.78
2022-12-11T00:34:02.770Z,101347.19
2022-12-11T00:36:29.796Z,101340.28
2022-12-11T00:38:56.480Z,101337.63
2022-12-11T00:41:23.761Z,101334.25
2022-12-11T00:43:50.583Z,101332.47
2022-12-11T00:46:17.818Z,101336.91
2022-12-11T00:48:44.368Z,101331.50
2022-12-11T00:51:11.142Z,101334.25
2022-12-11T00:53:39.151Z,101335.31
2022-12-11T00:56:20.065Z,101338.69
2022-12-11T00:58:48.604Z,101333.53
2022-12-11T01:01:21.328Z,101331.84
2022-12-11T01:03:48.414Z,101341.44
2022-12-11T01:06:18.873Z,101340.59
2022-12-11T01:08:47.104Z,101342.41
2022-12-11T01:11:17.162Z,101342.41
2022-12-11T01:13:44.578Z,101334.59
2022-12-11T01:16:14.611Z,101319.19
2022-12-11T01:18:41.501Z,101331.94
2022-12-11T01:21:13.599Z,101333.63
2022-12-11T01:23:40.567Z,101334.47
2022-12-11T01:26:11.014Z,101329.44
2022-12-11T01:28:38.769Z,101324.88
2022-12-11T01:31:10.620Z,101328.59
2022-12-11T01:33:37.791Z,101325.09
2022-12-11T01:36:14.834Z,101331.09
2022-12-11T01:38:41.648Z,101325.00
2022-12-11T01:41:09.151Z,101327.75
2022-12-11T01:43:55.924Z,101320.03
2022-12-11T01:46:22.495Z,101323.31
2022-12-11T01:48:49.733Z,101322.34
2022-12-11T01:51:16.782Z,101320.66
2022-12-11T01:53:48.957Z,101312.13
2022-12-11T01:56:15.686Z,101322.47
2022-12-11T01:58:47.840Z,101316.22
2022-12-11T02:01:23.587Z,101314.53
2022-12-11T02:03:51.342Z,101319.09
2022-12-11T02:06:37.352Z,101323.41
2022-12-11T02:09:07.733Z,101316.56
2022-12-11T02:12:10.290Z,101324.25
2022-12-11T02:14:56.631Z,101319.09
2022-12-11T02:17:26.548Z,101322.69
2022-12-11T02:20:08.299Z,101309.91
2022-12-11T02:23:00.070Z,101308.63
2022-12-11T02:25:36.940Z,101303.47
2022-12-11T02:28:48.749Z,101304.31
2022-12-11T02:31:32.592Z,101300.06
2022-12-11T02:34:13.345Z,101294.91
2022-12-11T02:36:44.793Z,101304.41
2022-12-11T02:39:15.488Z,101293.09
2022-12-11T02:41:47.317Z,101293.09
2022-12-11T02:44:17.300Z,101293.84
2022-12-11T02:46:44.802Z,101291.31
2022-12-11T02:49:13.667Z,101301.66
2022-12-11T02:51:42.578Z,101297.22
2022-12-11T02:54:15.005Z,101299.88
2022-12-11T02:56:51.251Z,101291.31
2022-12-11T02:59:27.465Z,101290.34
2022-12-11T03:01:54.532Z,101290.25
2022-12-11T03:04:24.867Z,101293.00
2022-12-11T03:06:55.884Z,101286.88
2022-12-11T03:09:22.899Z,101287.63
2022-12-11T03:11:49.490Z,101288.56
2022-12-11T03:14:16.057Z,101284.13
2022-12-11T03:16:59.209Z,101289.41
2022-12-11T03:19:36.709Z,101283.50
2022-12-11T03:22:11.416Z,101284.34
2022-12-11T03:24:37.902Z,101285.91
2022-12-11T03:27:18.880Z,101285.28
2022-12-11T03:29:57.243Z,101285.19
2022-12-11T03:32:28.878Z,101284.44
2022-12-11T03:35:12.136Z,101275.69
2022-12-11T03:37:41.152Z,101278.09
2022-12-11T03:40:14.022Z,101285.91
2022-12-11T03:42:43.982Z,101287.72
2022-12-11T03:45:13.693Z,101292.06
2022-12-11T03:47:42.640Z,101284.22
2022-12-11T03:50:12.917Z,101292.06
2022-12-11T03:52:45.949Z,101279.06
2022-12-11T03:55:15.848Z,101285.06
2022-12-11T03:57:43.165Z,101285.81
2022-12-11T04:00:13.837Z,101278.09
2022-12-11T04:02:41.292Z,101273.66
2022-12-11T04:05:09.817Z,101278.00
2022-12-11T04:07:37.202Z,101268.38
2022-12-11T04:10:05.721Z,101280.63
2022-12-11T04:12:32.777Z,101279.69
2022-12-11T04:15:02.384Z,101276.09
2022-12-11T04:17:52.531Z,101266.81
2022-12-11T04:20:38.676Z,101281.38
2022-12-11T04:23:25.425Z,101274.63
2022-12-11T04:25:52.170Z,101271.75
2022-12-11T04:28:19.141Z,101274.41
2022-12-11T04:30:50.670Z,101276.19
2022-12-11T04:33:17.291Z,101275.25
2022-12-11T04:35:43.846Z,101279.69
2022-12-11T04:38:10.877Z,101274.50
2022-12-11T04:40:37.869Z,101273.56
2022-12-11T04:43:04.433Z,101269.13
2022-12-11T04:45:31.417Z,101275.25
2022-12-11T04:47:57.943Z,101262.25
2022-12-11T04:50:24.931Z,101261.41
2022-12-11T04:52:55.225Z,101263.00
2022-12-11T04:55:21.779Z,101256.03
2022-12-11T04:57:48.311Z,101256.88
2022-12-11T05:00:15.814Z,101251.59
2022-12-11T05:02:43.061Z,101255.91
2022-12-11T05:05:11.371Z,101247.03
2022-12-11T05:07:38.955Z,101243.44
2022-12-11T05:10:07.006Z,101252.31
2022-12-11T05:12:34.039Z,101249.38
2022-12-11T05:15:00.605Z,101237.31
2022-12-11T05:17:27.637Z,101241.53
2022-12-11T05:19:54.281Z,101251.84
2022-12-11T05:22:20.790Z,101242.50
2022-12-11T05:24:47.764Z,101251.84
2022-12-11T05:27:14.368Z,101250.06
2022-12-11T05:29:42.073Z,101251.84
2022-12-11T05:32:09.140Z,101256.09
2022-12-11T05:34:35.640Z,101258.84
2022-12-11T05:37:02.674Z,101253.53
2022-12-11T05:39:29.941Z,101257.75
2022-12-11T05:41:57.156Z,101249.09
2022-12-11T05:44:23.911Z,101252.38
2022-12-11T05:46:50.978Z,101239.28
2022-12-11T05:49:19.906Z,101237.38
2022-12-11T05:51:47.217Z,101240.00
2022-12-11T05:54:14.069Z,101223.44
2022-12-11T05:56:41.053Z,101233.03
2022-12-11T05:59:08.475Z,101223.31
2022-12-11T06:01:38.298Z,101229.44
2022-12-11T06:04:06.799Z,101231.97
2022-12-11T06:06:34.729Z,101232.94
2022-12-11T06:09:01.562Z,101229.44
2022-12-11T06:11:32.154Z,101233.03
2022-12-11T06:14:01.081Z,101223.31
2022-12-11T06:16:27.638Z,101231.13
2022-12-11T06:18:58.012Z,101234.50
2022-12-11T06:21:33.569Z,101228.38
2022-12-11T06:24:03.232Z,101237.16
2022-12-11T06:26:30.381Z,101232.75
2022-12-11T06:28:57.403Z,101231.88
2022-12-11T06:31:24.524Z,101227.47
2022-12-11T06:33:51.144Z,101232.81
2022-12-11T06:36:20.971Z,101235.56
2022-12-11T06:38:48.471Z,101238.94
2022-12-11T06:41:15.087Z,101227.53
2022-12-11T06:44:02.776Z,101230.19
2022-12-11T06:46:30.059Z,101232.81
2022-12-11T06:48:57.525Z,101232.75
2022-12-11T06:51:24.134Z,101238.09
2022-12-11T06:53:57.023Z,101234.63
2022-12-11T06:56:24.557Z,101245.19
2022-12-11T06:58:52.053Z,101241.59
2022-12-11T07:01:24.888Z,101242.44
2022-12-11T07:03:58.862Z,101240.97
2022-12-11T07:06:27.109Z,101254.06
2022-12-11T07:08:54.233Z,101251.53
2022-12-11T07:11:21.884Z,101254.91
2022-12-11T07:13:48.949Z,101258.50
2022-12-11T07:16:17.432Z,101258.72
2022-12-11T07:18:48.469Z,101260.31
2022-12-11T07:21:16.373Z,101262.84
2022-12-11T07:23:43.508Z,101266.22
2022-12-11T07:26:16.944Z,101270.56
2022-12-11T07:28:43.651Z,101261.16
2022-12-11T07:31:16.454Z,101265.19
2022-12-11T07:33:44.493Z,101266.44
2022-12-11T07:36:13.552Z,101274.78
2022-12-11T07:38:40.806Z,101270.34
2022-12-11T07:41:11.328Z,101259.34
2022-12-11T07:43:38.127Z,101251.75
2022-12-11T07:46:17.441Z,101283.56
2022-12-11T07:48:46.255Z,101268.66
2022-12-11T07:51:26.572Z,101265.88
2022-12-11T07:53:55.120Z,101255.66
2022-12-11T07:56:22.279Z,101264.34
2022-12-11T07:58:48.949Z,101261.03
2022-12-11T08:01:18.644Z,101270.22
2022-12-11T08:03:45.753Z,101264.09
2022-12-11T08:06:12.722Z,101260.50
2022-12-11T08:08:41.504Z,101251.03
2022-12-11T08:11:10.849Z,101258.69
2022-12-11T08:13:38.095Z,101263.88
2022-12-11T08:16:10.044Z,101262.06
2022-12-11T08:18:39.077Z,101256.31
2022-12-11T08:21:08.104Z,101253.66
2022-12-11T08:23:35.105Z,101270.09
2022-12-11T08:26:04.121Z,101259.66
2022-12-11T08:28:31.102Z,101269.16
2022-12-11T08:31:02.091Z,101260.50
2022-12-11T08:33:28.908Z,101275.38
2022-12-11T08:35:55.402Z,101271.69
2022-12-11T08:38:25.458Z,101283.09
2022-12-11T08:40:52.270Z,101285.63
2022-12-11T08:43:19.363Z,101283.81
2022-12-11T08:45:46.609Z,101280.34
2022-12-11T08:48:13.281Z,101283.81
2022-12-11T08:50:39.826Z,101270.84
2022-12-11T08:53:06.377Z,101271.56
2022-12-11T08:55:33.750Z,101263.97
2022-12-11T08:58:00.349Z,101265.34
2022-12-11T09:00:26.898Z,101270.63
2022-12-11T09:02:53.453Z,101275.69
2022-12-11T09:05:20.532Z,101269.56
2022-12-11T09:07:47.138Z,101266.91
2022-12-11T09:10:13.841Z,101259.09
2022-12-11T09:12:40.633Z,101246.09
2022-12-11T09:15:07.919Z,101265.22
2022-12-11T09:17:35.154Z,101265.84
2022-12-11T09:20:01.977Z,101264.16
2022-12-11T09:22:28.655Z,101258.13
2022-12-11T09:24:55.193Z,101254.53
2022-12-11T09:27:22.200Z,101258.88
2022-12-11T09:29:49.313Z,101265.84
2022-12-11T09:32:15.855Z,101263.22
2022-12-11T09:34:42.413Z,101260.78
2022-12-11T09:37:09.328Z,101261.50
2022-12-11T09:39:35.976Z,101257.19
2022-12-11T09:42:31.823Z,101258.72
2022-12-11T09:45:03.056Z,101260.56
2022-12-11T09:47:40.794Z,101255.81
2022-12-11T09:50:10.481Z,101270.16
2022-12-11T09:52:55.541Z,101274.47
2022-12-11T09:55:24.369Z,101268.59
2022-12-11T09:57:50.827Z,101271.84
2022-12-11T10:00:37.189Z,101267.66
2022-12-11T10:03:18.906Z,101267.50
2022-12-11T10:06:22.692Z,101266.53
2022-12-11T10:09:17.073Z,101270.03
2022-12-11T10:12:16.115Z,101263.91
2022-12-11T10:15:18.631Z,101267.66
2022-12-11T10:17:45.846Z,101260.56
2022-12-11T10:20:24.536Z,101263.91
2022-12-11T10:22:52.661Z,101260.56
2022-12-11T10:25:31.572Z,101265.59
2022-12-11T10:27:58.292Z,101270.78
2022-12-11T10:30:32.936Z,101267.28
2022-12-11T10:33:43.041Z,101265.47
2022-12-11T10:36:11.213Z,101262.94
2022-12-11T10:38:44.128Z,101261.16
2022-12-11T10:41:14.248Z,101258.50
2022-12-11T10:43:46.361Z,101255.88
2022-12-11T10:46:25.045Z,101253.22
2022-12-11T10:48:55.361Z,101249.00
2022-12-11T10:51:43.814Z,101244.72
2022-12-11T10:54:39.833Z,101254.19
2022-12-11T10:57:10.619Z,101246.38
2022-12-11T10:59:43.581Z,101254.19
2022-12-11T11:02:31.891Z,101246.50
2022-12-11T11:05:01.365Z,101247.22
2022-12-11T11:07:34.329Z,101243.72
2022-12-11T11:10:12.461Z,101236.06
2022-12-11T11:12:46.073Z,101231.59
2022-12-11T11:15:18.546Z,101234.84
2022-12-11T11:17:54.959Z,101237.59
2022-12-11T11:20:28.128Z,101236.78
2022-12-11T11:23:03.971Z,101226.44
2022-12-11T11:25:32.686Z,101234.25
2022-12-11T11:28:05.345Z,101225.69
2022-12-11T11:30:33.518Z,101235.09
2022-12-11T11:33:06.285Z,101224.63
2022-12-11T11:35:33.096Z,101218.63
2022-12-11T11:38:17.569Z,101215.75
2022-12-11T11:41:15.247Z,101214.91
2022-12-11T11:43:47.731Z,101213.97
2022-12-11T11:46:44.735Z,101208.06
2022-12-11T11:49:42.118Z,101204.22
2022-12-11T11:52:26.084Z,101198.94
2022-12-11T11:55:18.739Z,101208.53
2022-12-11T11:57:58.685Z,101206.03
2022-12-11T12:00:33.311Z,101201.59
2022-12-11T12:03:13.644Z,101211.16
2022-12-11T12:05:47.100Z,101213.69
2022-12-11T12:08:22.945Z,101209.25
2022-12-11T12:10:59.251Z,101218.97
2022-12-11T12:13:55.347Z,101208.41
2022-12-11T12:16:52.820Z,101210.09
2022-12-11T12:19:35.618Z,101210.94
2022-12-11T12:22:32.438Z,101199.53
2022-12-11T12:25:01.684Z,101209.25
2022-12-11T12:27:53.667Z,101209.88
2022-12-11T12:30:23.214Z,101197.84
2022-12-11T12:33:25.673Z,101202.78
2022-12-11T12:36:25.276Z,101201.00
2022-12-11T12:39:02.173Z,101189.81
2022-12-11T12:41:34.742Z,101200.03
2022-12-11T12:44:04.749Z,101208.81
2022-12-11T12:46:54.257Z,101207.84
2022-12-11T12:49:42.110Z,101201.00
2022-12-11T12:52:33.756Z,101193.91
2022-12-11T12:55:18.896Z,101191.38
2022-12-11T12:57:49.844Z,101195.47
2022-12-11T13:00:41.358Z,101199.09
2022-12-11T13:03:18.275Z,101196.44
2022-12-11T13:05:57.064Z,101190.31
2022-12-11T13:08:38.467Z,101194.53
2022-12-11T13:11:07.912Z,101186.81
2022-12-11T13:13:39.397Z,101185.13
2022-12-11T13:16:24.885Z,101191.88
2022-12-11T13:18:52.646Z,101189.25
2022-12-11T13:21:35.310Z,101185.75
2022-12-11T13:24:20.013Z,101191.03
2022-12-11T13:26:48.778Z,101191.03
2022-12-11T13:29:30.521Z,101178.41
2022-12-11T13:32:08.145Z,101193.19
2022-12-11T13:34:39.058Z,101195.47
2022-12-11T13:37:07.456Z,101193.28
2022-12-11T13:39:40.544Z,101194.88
2022-12-11T13:42:20.825Z,101205.44
2022-12-11T13:44:49.468Z,101202.78
2022-12-11T13:47:19.211Z,101210.72
2022-12-11T13:49:50.495Z,101199.53
2022-12-11T13:52:20.443Z,101203.63
2022-12-11T13:54:52.919Z,101202.78
2022-12-11T13:57:25.964Z,101189.22
2022-12-11T13:59:59.437Z,101198.56
2022-12-11T14:02:29.559Z,101191.38
2022-12-11T14:04:59.962Z,101192.56
2022-12-11T14:07:40.858Z,101182.94
2022-12-11T14:10:28.756Z,101195.09
2022-12-11T14:13:02.955Z,101196.31
2022-12-11T14:15:32.912Z,101191.88
2022-12-11T14:18:00.530Z,101201.34
2022-12-11T14:20:33.218Z,101194.63
2022-12-11T14:23:07.679Z,101199.66
2022-12-11T14:25:34.771Z,101193.66
2022-12-11T14:28:01.766Z,101199.78
2022-12-11T14:30:31.845Z,101186.06
2022-12-11T14:33:03.160Z,101190.41
2022-12-11T14:35:38.950Z,101198.09
2022-12-11T14:38:24.565Z,101190.97
2022-12-11T14:40:56.950Z,101208.41
2022-12-11T14:43:29.347Z,101207.94
2022-12-11T14:46:00.671Z,101204.22
2022-12-11T14:48:33.018Z,101217.44
2022-12-11T14:51:04.111Z,101203.59
2022-12-11T14:53:38.928Z,101205.28
2022-12-11T14:56:07.619Z,101196.88
2022-12-11T14:58:43.021Z,101211.31
2022-12-11T15:01:41.885Z,101209.63
2022-12-11T15:04:14.188Z,101211.31
2022-12-11T15:06:47.027Z,101209.50
2022-12-11T15:09:18.867Z,101209.63
2022-12-11T15:11:47.174Z,101206.38
2022-12-11T15:14:16.619Z,101212.28
2022-12-11T15:16:43.793Z,101213.81
2022-12-11T15:19:21.977Z,101207.72
2022-12-11T15:21:49.594Z,101206.03
2022-12-11T15:24:42.832Z,101205.06
2022-12-11T15:27:28.455Z,101208.53
2022-12-11T15:29:55.682Z,101207.94
2022-12-11T15:32:23.515Z,101211.53
2022-12-11T15:34:53.234Z,101216.44
2022-12-11T15:37:24.874Z,101227.88
2022-12-11T15:39:52.761Z,101219.94
2022-12-11T15:42:31.833Z,101219.94
2022-12-11T15:44:59.497Z,101218.28
2022-12-11T15:47:29.235Z,101217.56
2022-12-11T15:50:11.971Z,101231.25
2022-12-11T15:52:39.116Z,101228.59
2022-12-11T15:55:06.814Z,101225.22
2022-12-11T15:57:34.463Z,101226.06
2022-12-11T16:00:01.822Z,101219.47
2022-12-11T16:02:28.378Z,101231.25
2022-12-11T16:04:54.993Z,101227.88
2022-12-11T16:07:24.204Z,101232.09
2022-12-11T16:09:50.758Z,101232.81
2022-12-11T16:12:17.777Z,101234.63
2022-12-11T16:14:46.156Z,101230.41
2022-12-11T16:17:14.957Z,101225.97
2022-12-11T16:19:43.067Z,101230.41
2022-12-11T16:22:10.738Z,101236.31
2022-12-11T16:24:37.493Z,101232.94
2022-12-11T16:27:05.300Z,101236.31
2022-12-11T16:29:39.925Z,101231.88
2022-12-11T16:32:08.405Z,101224.88
2022-12-11T16:34:37.275Z,101227.66
2022-12-11T16:37:06.090Z,101228.25
2022-12-11T16:39:32.790Z,101226.56
2022-12-11T16:41:59.294Z,101228.38
2022-12-11T16:44:27.331Z,101234.50
2022-12-11T16:46:54.502Z,101225.13
2022-12-11T16:49:22.557Z,101236.31
2022-12-11T16:51:51.777Z,101226.81
2022-12-11T16:54:18.607Z,101231.13
2022-12-11T16:56:45.441Z,101232.31
2022-12-11T16:59:12.935Z,101228.50
2022-12-11T17:01:40.019Z,101237.25
2022-12-11T17:04:06.996Z,101233.03
2022-12-11T17:06:34.021Z,101224.38
2022-12-11T17:09:01.277Z,101230.41
2022-12-11T17:11:28.020Z,101223.44
2022-12-11T17:13:56.017Z,101230.41
2022-12-11T17:16:24.879Z,101225.00
2022-12-11T17:18:51.891Z,101227.88
2022-12-11T17:21:19.725Z,101223.19
2022-12-11T17:23:46.306Z,101232.09
2022-12-11T17:26:12.875Z,101236.41
2022-12-11T17:28:39.655Z,101230.41
2022-12-11T17:31:09.153Z,101232.31
2022-12-11T17:33:35.961Z,101238.44
2022-12-11T17:36:05.273Z,101241.69
2022-12-11T17:38:32.167Z,101236.53
2022-12-11T17:40:59.066Z,101233.03
2022-12-11T17:43:26.222Z,101231.34
2022-12-11T17:45:52.967Z,101232.09
2022-12-11T17:48:22.442Z,101233.78
2022-12-11T17:50:50.857Z,101234.00
2022-12-11T17:53:19.569Z,101226.22
2022-12-11T17:55:47.010Z,101233.03
2022-12-11T17:58:16.689Z,101234.84
2022-12-11T18:00:44.866Z,101241.69
2022-12-11T18:03:13.271Z,101234.00
2022-12-11T18:05:44.655Z,101232.19
2022-12-11T18:08:16.050Z,101239.28
2022-12-11T18:10:42.784Z,101234.94
2022-12-11T18:13:09.803Z,101234.94
2022-12-11T18:15:36.877Z,101239.28
2022-12-11T18:18:04.553Z,101242.88
2022-12-11T18:20:32.686Z,101235.94
2022-12-11T18:23:00.651Z,101243.72
2022-12-11T18:25:27.433Z,101242.75
2022-12-11T18:27:57.327Z,101240.38
2022-12-11T18:30:25.186Z,101240.97
2022-12-11T18:32:52.559Z,101244.47
2022-12-11T18:35:19.525Z,101238.22
2022-12-11T18:37:46.588Z,101237.38
2022-12-11T18:40:13.536Z,101239.44
2022-12-11T18:42:40.604Z,101235.56
2022-12-11T18:45:07.712Z,101236.63
2022-12-11T18:47:34.771Z,101236.63
2022-12-11T18:50:07.321Z,101235.69
2022-12-11T18:52:34.989Z,101241.81
2022-12-11T18:55:02.179Z,101249.00
2022-12-11T18:57:29.232Z,101240.13
2022-12-11T18:59:56.260Z,101243.72
2022-12-11T19:02:23.553Z,101237.47
2022-12-11T19:04:50.128Z,101241.91
2022-12-11T19:07:16.596Z,101243.59
2022-12-11T19:09:47.801Z,101239.16
2022-12-11T19:12:14.817Z,101244.22
2022-12-11T19:14:41.496Z,101237.59
2022-12-11T19:17:08.627Z,101239.06
2022-12-11T19:19:36.000Z,101237.47
2022-12-11T19:22:03.101Z,101241.81
2022-12-11T19:24:30.345Z,101248.66
2022-12-11T19:26:57.223Z,101252.03
2022-12-11T19:29:28.690Z,101248.56
2022-12-11T19:31:56.713Z,101249.50
2022-12-11T19:34:23.795Z,101244.34
2022-12-11T19:36:50.619Z,101254.69
2022-12-11T19:39:17.377Z,101247.59
2022-12-11T19:41:46.489Z,101245.28
2022-12-11T19:44:13.077Z,101249.41
2022-12-11T19:46:39.652Z,101256.50
2022-12-11T19:49:06.409Z,101255.03
2022-12-11T19:51:38.881Z,101255.66
2022-12-11T19:54:07.123Z,101257.44
2022-12-11T19:56:34.620Z,101257.34
2022-12-11T19:59:06.875Z,101252.78
2022-12-11T20:01:36.063Z,101252.03
2022-12-11T20:04:10.148Z,101257.22
2022-12-11T20:06:38.786Z,101250.13
2022-12-11T20:09:10.681Z,101252.66
2022-12-11T20:11:39.496Z,101246.75
2022-12-11T20:14:06.657Z,101257.09
2022-12-11T20:17:08.664Z,101257.97
2022-12-11T20:19:21.022Z,101263.25
2022-12-11T20:21:48.039Z,101265.03
2022-12-11T20:24:14.596Z,101258.06
2022-12-11T20:26:41.166Z,101263.25
2022-12-11T20:29:08.408Z,101258.81
2022-12-11T20:31:36.397Z,101258.06
2022-12-11T20:34:03.532Z,101257.97
2022-12-11T20:36:30.123Z,101254.56
2022-12-11T20:38:56.761Z,101257.84
2022-12-11T20:41:24.577Z,101258.69
2022-12-11T20:43:53.980Z,101257.97
2022-12-11T20:46:22.401Z,101260.34
2022-12-11T20:48:50.714Z,101266.63
2022-12-11T20:51:25.726Z,101267.78
2022-12-11T20:53:59.125Z,101266.94
2022-12-11T20:56:28.771Z,101270.31
2022-12-11T20:58:56.319Z,101266.94
2022-12-11T21:01:25.898Z,101270.31
2022-12-11T21:03:53.555Z,101266.94
2022-12-11T21:06:20.074Z,101273.91
2022-12-11T21:08:46.685Z,101280.06
2022-12-11T21:11:13.931Z,101268.84
2022-12-11T21:13:41.044Z,101277.53
2022-12-11T21:16:08.741Z,101274.88
2022-12-11T21:18:35.358Z,101270.78
2022-12-11T21:21:02.791Z,101270.66
2022-12-11T21:23:29.382Z,101276.69
2022-12-11T21:25:56.402Z,101285.56
2022-12-11T21:28:23.632Z,101276.16
2022-12-11T21:30:50.706Z,101281.00
2022-12-11T21:33:17.582Z,101279.44
2022-12-11T21:35:44.462Z,101279.44
2022-12-11T21:38:11.127Z,101278.59
2022-12-11T21:40:37.819Z,101280.91
2022-12-11T21:43:04.823Z,101272.34
2022-12-11T21:48:22.872Z,101286.06
2022-12-11T21:50:51.503Z,101282.59
2022-12-11T21:53:18.217Z,101281.00
2022-12-11T21:55:45.301Z,101282.69
2022-12-11T21:58:11.950Z,101283.97
2022-12-11T22:00:39.506Z,101280.50
2022-12-11T22:03:06.396Z,101288.19
2022-12-11T22:05:33.288Z,101286.50
2022-12-11T22:08:00.395Z,101289.16
2022-12-11T22:10:28.720Z,101287.69
2022-12-11T22:12:56.248Z,101290.22
2022-12-11T22:15:22.843Z,101279.75
2022-12-11T22:17:49.937Z,101300.56
2022-12-11T22:20:16.530Z,101298.78
2022-12-11T22:22:43.575Z,101290.22
2022-12-11T22:25:10.392Z,101298.78
2022-12-11T22:27:37.266Z,101297.09
2022-12-11T22:30:04.609Z,101283.25
2022-12-11T22:32:31.113Z,101291.91
2022-12-11T22:34:57.909Z,101295.50
2022-12-11T22:37:25.164Z,101290.44
2022-12-11T22:39:51.905Z,101294.66
2022-12-11T22:42:19.370Z,101299.94
2022-12-11T22:44:46.376Z,101300.78
2022-12-11T22:47:13.422Z,101292.28
2022-12-11T22:49:40.401Z,101309.66
2022-12-11T22:52:07.484Z,101307.28
2022-12-11T22:54:34.561Z,101311.47
2022-12-11T22:57:01.476Z,101307.97
2022-12-11T22:59:28.208Z,101314.09
2022-12-11T23:01:55.262Z,101317.72
2022-12-11T23:04:21.795Z,101310.75
2022-12-11T23:06:48.312Z,101311.72
2022-12-11T23:09:14.960Z,101307.50
2022-12-11T23:11:42.087Z,101316.88
2022-12-11T23:14:14.482Z,101318.69
2022-12-11T23:16:41.846Z,101315.31
2022-12-11T23:19:09.291Z,101311.72
2022-12-11T23:21:36.042Z,101313.50
2022-12-11T23:24:02.720Z,101307.38
2022-12-11T23:26:29.809Z,101304.00
2022-12-11T23:28:58.524Z,101302.22
2022-12-11T23:31:26.334Z,101308.22
2022-12-11T23:33:53.221Z,101306.66
2022-12-11T23:36:20.500Z,101305.81
2022-12-11T23:38:54.069Z,101310.97
2022-12-11T23:41:22.025Z,101311.09
2022-12-11T23:43:48.834Z,101309.28
2022-12-11T23:46:19.108Z,101306.75
2022-12-11T23:48:46.762Z,101310.25
2022-12-11T23:51:15.765Z,101313.09
2022-12-11T23:53:43.364Z,101312.03
2022-12-11T23:56:14.287Z,101311.19
2022-12-11T23:58:41.484Z,101313.00
